Terminal Aerodrome Forecast
Issued by NWS Mobile, AL

Home | Current Version | Previous Version | Text Only | Print | Product List | Glossary On
Versions: 1 2 3 4 5 6 7 8 9 10 11 12
000
FTUS44 KMOB 240530
TAFPNS
TAF
KPNS 240530Z 2406/2506 09004KT P6SM SKC
     FM241800 10011KT P6SM SCT035 BKN250 PROB30 2420/2424 VRB20G30KT
      3SM TSRA SCT025CB
     FM250300 07005KT P6SM BKN250=

USA.gov is the U.S. government's official web portal to all federal, state and local government web resources and services.